Jackson, Nebraska
Current Conditions -  °F | °C
As of 10:52 PM on Friday 24 Oct 2014 (Local Time) from KSUX Reporting Station
Clear Clear  
Wind Chill: 48°   Ceiling: Unl
Heat Index: 48°   Visibility: 10mi
Dew Point: 45°   Wind: 3mph
Humidity: 89%   Direction: 320°NW
Pressure: 30"   Gusts: NA
Location:  42.45°N, 96.56°W
Report Text: KSUX 250352Z AUTO 32003KT 10SM CLR 09/07 A3000 RMK AO2 SLP158 T00890072
Loading
Personal Weather Stations






























Interactive Weather Map
Tropical Storm Tracking
New forecast layout! Learn more

10-Day Weather Forecast

Advertisements
Track Severe Weather on mobile